Time;durP1;ratioP1;P1;durP2;ratioP2;P2;SDS_P1;SDS_P2;PMS_P1;PMS_P2;Temp;Humidity;BMP_temperature;BMP_pressure;BME280_temperature;BME280_humidity;BME280_pressure;Samples;Min_cycle;Max_cycle;Signal;HPM_P1;HPM_P2
2022/11/26 00:02:16;;;;;;;23.65;13.63;;;6.90;99.90;;;;;;5053320;28;20205;-59
2022/11/26 00:04:43;;;;;;;18.70;12.20;;;6.90;99.90;;;;;;5052912;28;20189;-59
2022/11/26 00:07:11;;;;;;;28.77;13.95;;;6.80;99.90;;;;;;5052955;28;20212;-59
2022/11/26 00:09:39;;;;;;;32.55;12.40;;;6.80;99.90;;;;;;5052788;28;20205;-59
2022/11/26 00:12:15;;;;;;;25.42;13.00;;;6.80;99.90;;;;;;5052832;28;20204;-58
2022/11/26 00:14:42;;;;;;;26.52;13.05;;;6.80;99.90;;;;;;5052959;28;20252;-59
2022/11/26 00:17:12;;;;;;;26.42;12.55;;;6.80;99.90;;;;;;5052974;28;20201;-58
2022/11/26 00:19:39;;;;;;;31.00;13.65;;;6.80;99.90;;;;;;5052975;28;20205;-59
2022/11/26 00:22:10;;;;;;;27.48;13.98;;;6.80;99.90;;;;;;5053055;28;20210;-58
2022/11/26 00:24:37;;;;;;;28.42;13.98;;;6.80;99.90;;;;;;5052965;28;20186;-60
2022/11/26 00:27:04;;;;;;;31.80;13.60;;;6.70;99.90;;;;;;5056073;28;20682;-58
2022/11/26 00:29:30;;;;;;;35.70;13.23;;;6.70;99.90;;;;;;5057292;28;20566;-58
2022/11/26 00:31:57;;;;;;;26.45;13.23;;;6.70;99.90;;;;;;5056724;28;20201;-57
2022/11/26 00:34:25;;;;;;;26.55;12.80;;;6.70;99.90;;;;;;5057051;28;20222;-57
2022/11/26 00:36:52;;;;;;;21.75;11.63;;;6.70;99.90;;;;;;5056827;28;20221;-59
2022/11/26 00:39:22;;;;;;;27.35;14.32;;;6.70;99.90;;;;;;5057131;28;20201;-57
2022/11/26 00:41:52;;;;;;;28.42;13.13;;;6.70;99.90;;;;;;5057921;28;20185;-58
2022/11/26 00:44:20;;;;;;;28.90;12.90;;;6.70;99.90;;;;;;5056933;28;20193;-59
2022/11/26 00:46:48;;;;;;;38.85;13.55;;;6.70;99.90;;;;;;5056669;28;20303;-57
2022/11/26 00:49:15;;;;;;;31.50;13.70;;;6.70;99.90;;;;;;5056936;28;20209;-59
2022/11/26 00:51:45;;;;;;;29.52;12.02;;;6.70;99.90;;;;;;5056776;28;20248;-59
2022/11/26 00:54:15;;;;;;;25.38;12.82;;;6.70;99.90;;;;;;5056248;28;20575;-58
2022/11/26 00:56:42;;;;;;;25.23;11.30;;;6.70;99.90;;;;;;5057033;28;20221;-58
2022/11/26 00:59:13;;;;;;;24.77;12.25;;;6.70;99.90;;;;;;5056757;28;20279;-58
2022/11/26 01:01:39;;;;;;;23.77;11.55;;;6.70;99.90;;;;;;5056680;28;20224;-58
2022/11/26 01:04:06;;;;;;;25.25;11.60;;;6.70;99.90;;;;;;5056691;28;20228;-58
2022/11/26 01:06:35;;;;;;;28.25;12.55;;;6.70;99.90;;;;;;5056332;28;20221;-57
2022/11/26 01:09:04;;;;;;;23.25;11.90;;;6.60;99.90;;;;;;5056340;28;20206;-58
2022/11/26 01:11:31;;;;;;;30.10;12.02;;;6.60;99.90;;;;;;5056473;28;20293;-58
2022/11/26 01:13:58;;;;;;;26.85;11.30;;;6.60;99.90;;;;;;5056440;28;20202;-58
2022/11/26 01:16:27;;;;;;;24.83;11.50;;;6.60;99.90;;;;;;5055999;28;20225;-59
2022/11/26 01:18:55;;;;;;;37.30;14.15;;;6.60;99.90;;;;;;5056281;28;20204;-57
2022/11/26 01:21:24;;;;;;;25.65;12.63;;;6.60;99.90;;;;;;5055891;28;20205;-59
2022/11/26 01:23:51;;;;;;;32.22;12.10;;;6.60;99.90;;;;;;5056085;28;20205;-59
2022/11/26 01:26:22;;;;;;;20.50;10.60;;;6.50;99.90;;;;;;5055319;28;20229;-59
2022/11/26 01:28:49;;;;;;;25.75;12.35;;;6.50;99.90;;;;;;5055845;28;20186;-59
2022/11/26 01:31:18;;;;;;;23.50;10.82;;;6.50;99.90;;;;;;5055943;28;20201;-58
2022/11/26 01:33:45;;;;;;;31.20;11.15;;;6.50;99.90;;;;;;5055639;28;20575;-59
2022/11/26 01:36:20;;;;;;;20.05;11.35;;;6.40;99.90;;;;;;5055294;28;20225;-58
2022/11/26 01:38:46;;;;;;;22.40;10.27;;;6.40;99.90;;;;;;5055060;28;20196;-59
2022/11/26 01:41:21;;;;;;;29.08;11.10;;;6.40;99.90;;;;;;5055441;28;20585;-58
2022/11/26 01:43:51;;;;;;;23.42;11.05;;;6.40;99.90;;;;;;5056426;28;20550;-57
2022/11/26 01:46:21;;;;;;;22.13;11.15;;;6.40;99.90;;;;;;5055654;28;20224;-58
2022/11/26 01:48:49;;;;;;;26.67;11.02;;;6.30;99.90;;;;;;5055571;28;20625;-57
2022/11/26 01:51:20;;;;;;;23.55;11.15;;;6.30;99.90;;;;;;5055608;28;20229;-57
2022/11/26 01:53:51;;;;;;;26.77;10.57;;;6.30;99.90;;;;;;5055669;28;20189;-57
2022/11/26 01:56:28;;;;;;;25.33;10.63;;;6.20;99.90;;;;;;5055566;28;20316;-58
2022/11/26 01:59:02;;;;;;;21.75;10.85;;;6.20;99.90;;;;;;5055324;28;20602;-58
2022/11/26 02:01:29;;;;;;;20.83;12.20;;;6.20;99.90;;;;;;5055203;28;20657;-58
2022/11/26 02:04:02;;;;;;;30.15;13.10;;;6.20;99.90;;;;;;5055247;28;20197;-57
2022/11/26 02:06:32;;;;;;;24.38;9.82;;;6.20;99.90;;;;;;5055316;28;20232;-58
2022/11/26 02:09:01;;;;;;;28.83;10.55;;;6.20;99.90;;;;;;5055203;28;20209;-58
2022/11/26 02:11:27;;;;;;;18.20;9.55;;;6.20;99.90;;;;;;5055119;28;20202;-59
2022/11/26 02:13:58;;;;;;;24.92;10.02;;;6.20;99.90;;;;;;5055109;28;20208;-58
2022/11/26 02:16:40;;;;;;;28.50;10.63;;;6.20;99.90;;;;;;5054861;28;20252;-57
2022/11/26 02:19:28;;;;;;;21.60;10.20;;;6.20;99.90;;;;;;5054664;28;20204;-58
2022/11/26 02:22:04;;;;;;;26.38;10.50;;;6.10;99.90;;;;;;5054881;28;20269;-59
2022/11/26 02:24:44;;;;;;;25.95;9.88;;;6.10;99.90;;;;;;5054902;28;20204;-58
2022/11/26 02:27:47;;;;;;;31.45;10.90;;;6.10;99.90;;;;;;5054932;28;20265;-58
2022/11/26 02:30:16;;;;;;;23.55;9.95;;;6.10;99.90;;;;;;5054720;28;20569;-58
2022/11/26 02:32:56;;;;;;;20.20;9.95;;;6.10;99.90;;;;;;5054755;28;20228;-58
2022/11/26 02:35:28;;;;;;;28.90;10.77;;;6.10;99.90;;;;;;5054258;28;20229;-59
2022/11/26 02:37:59;;;;;;;35.63;10.70;;;6.10;99.90;;;;;;5054600;28;20198;-59
2022/11/26 02:40:26;;;;;;;20.00;9.32;;;6.10;99.90;;;;;;5054436;28;20210;-59
2022/11/26 02:42:53;;;;;;;18.00;9.82;;;6.10;99.90;;;;;;5054260;28;20688;-58
2022/11/26 02:45:24;;;;;;;27.00;10.90;;;6.00;99.90;;;;;;5054348;28;20224;-58
2022/11/26 02:47:54;;;;;;;26.80;10.18;;;6.00;99.90;;;;;;5054835;28;20236;-58
2022/11/26 02:50:26;;;;;;;26.70;10.52;;;6.00;99.90;;;;;;5053257;28;20209;-57
2022/11/26 02:52:55;;;;;;;29.98;10.25;;;6.00;99.90;;;;;;5054459;28;20222;-59
2022/11/26 02:55:27;;;;;;;27.02;10.07;;;6.00;99.90;;;;;;5054403;28;20229;-58
2022/11/26 02:57:55;;;;;;;27.98;10.95;;;6.00;99.90;;;;;;5054506;28;20186;-59
2022/11/26 03:00:24;;;;;;;20.42;10.02;;;6.00;99.90;;;;;;5053859;28;20623;-59
2022/11/26 03:02:55;;;;;;;27.80;11.25;;;5.90;99.90;;;;;;5054258;28;20197;-59
2022/11/26 03:05:23;;;;;;;19.92;9.80;;;5.90;99.90;;;;;;5053953;28;20716;-58
2022/11/26 03:07:53;;;;;;;24.00;9.70;;;5.90;99.90;;;;;;5054127;28;20208;-58
2022/11/26 03:10:24;;;;;;;21.65;9.40;;;5.80;99.90;;;;;;5054144;28;20202;-58
2022/11/26 03:12:51;;;;;;;30.75;9.60;;;5.80;99.90;;;;;;5053843;28;20683;-58
2022/11/26 03:15:18;;;;;;;25.50;9.65;;;5.80;99.90;;;;;;5054021;28;20256;-57
2022/11/26 03:17:46;;;;;;;24.58;9.75;;;5.80;99.90;;;;;;5053973;28;20230;-57
2022/11/26 03:20:13;;;;;;;24.38;9.77;;;5.80;99.90;;;;;;5054081;28;20208;-58
2022/11/26 03:22:40;;;;;;;19.25;9.18;;;5.70;99.90;;;;;;5053804;28;20673;-57
2022/11/26 03:25:07;;;;;;;25.92;9.45;;;5.70;99.90;;;;;;5053337;28;20229;-57
2022/11/26 03:27:34;;;;;;;23.75;10.38;;;5.70;99.90;;;;;;5054234;28;20198;-58
2022/11/26 03:30:02;;;;;;;30.90;10.00;;;5.70;99.90;;;;;;5054784;28;20201;-58
2022/11/26 03:32:28;;;;;;;30.55;9.80;;;5.70;99.90;;;;;;5054278;28;20657;-57
2022/11/26 03:34:56;;;;;;;22.67;9.52;;;5.70;99.90;;;;;;5053552;28;20244;-58
2022/11/26 03:37:23;;;;;;;24.23;10.15;;;5.70;99.90;;;;;;5053474;28;20208;-58
2022/11/26 03:39:50;;;;;;;24.40;9.25;;;5.70;99.90;;;;;;5053674;28;20209;-58
2022/11/26 03:42:17;;;;;;;20.30;8.95;;;5.70;99.90;;;;;;5053772;28;20212;-57
2022/11/26 03:44:43;;;;;;;17.45;9.10;;;5.70;99.90;;;;;;5053922;28;20229;-58
2022/11/26 03:47:10;;;;;;;16.33;8.65;;;5.60;99.90;;;;;;5054034;28;20201;-58
2022/11/26 03:49:37;;;;;;;25.58;9.02;;;5.60;99.90;;;;;;5054737;28;20234;-58
2022/11/26 03:52:05;;;;;;;21.20;8.48;;;5.60;99.90;;;;;;5054239;28;20547;-57
2022/11/26 03:54:32;;;;;;;25.52;9.20;;;5.60;99.90;;;;;;5053038;28;20198;-57
2022/11/26 03:56:59;;;;;;;16.40;8.80;;;5.50;99.90;;;;;;5053044;28;20233;-58
2022/11/26 03:59:25;;;;;;;21.40;8.63;;;5.50;99.90;;;;;;5053089;28;20613;-59
2022/11/26 04:01:52;;;;;;;21.83;8.82;;;5.40;99.90;;;;;;5052457;28;20208;-59
2022/11/26 04:04:19;;;;;;;19.55;8.63;;;5.30;99.90;;;;;;5052678;28;20662;-58
2022/11/26 04:06:45;;;;;;;16.85;8.95;;;5.30;99.90;;;;;;5052877;28;20225;-58
2022/11/26 04:10:37;;;;;;;21.88;8.45;;;5.10;99.90;;;;;;5091494;28;20541;-59
2022/11/26 04:13:04;;;;;;;14.32;8.00;;;5.10;99.90;;;;;;5090754;28;20205;-59
2022/11/26 04:15:31;;;;;;;13.60;7.10;;;5.00;99.90;;;;;;5090616;28;20217;-59
2022/11/26 04:17:57;;;;;;;22.73;8.63;;;5.00;99.90;;;;;;5090430;28;20204;-60
2022/11/26 04:20:24;;;;;;;17.95;8.40;;;4.90;99.90;;;;;;5090124;28;20669;-58
2022/11/26 04:22:51;;;;;;;18.73;7.80;;;4.90;99.90;;;;;;5091420;28;20197;-59
2022/11/26 04:25:18;;;;;;;17.73;7.40;;;4.90;99.90;;;;;;5090671;28;20217;-58
2022/11/26 04:27:46;;;;;;;24.15;8.65;;;4.80;99.90;;;;;;5090500;28;20202;-60
2022/11/26 04:30:14;;;;;;;21.67;8.40;;;4.80;99.90;;;;;;5090172;28;20224;-59
2022/11/26 04:32:41;;;;;;;20.55;8.82;;;4.70;99.90;;;;;;5090094;28;20204;-59
2022/11/26 04:35:09;;;;;;;20.63;8.27;;;4.70;99.90;;;;;;5089971;28;20221;-59
2022/11/26 04:37:36;;;;;;;13.95;7.63;;;4.70;99.90;;;;;;5090127;28;20204;-59
2022/11/26 04:40:03;;;;;;;23.25;9.13;;;4.60;99.90;;;;;;5089979;28;20201;-59
2022/11/26 04:42:30;;;;;;;17.48;8.50;;;4.60;99.90;;;;;;5089829;28;20208;-60
2022/11/26 04:44:58;;;;;;;17.63;8.75;;;4.50;99.90;;;;;;5089726;28;20220;-58
2022/11/26 04:47:25;;;;;;;22.90;8.50;;;4.50;99.90;;;;;;5089651;28;20215;-60
2022/11/26 04:49:51;;;;;;;21.33;8.43;;;4.50;99.90;;;;;;5089731;28;20220;-59
2022/11/26 04:52:18;;;;;;;20.08;8.57;;;4.40;99.90;;;;;;5089686;28;20307;-59
2022/11/26 04:54:45;;;;;;;21.23;9.07;;;4.40;99.90;;;;;;5089219;28;20212;-60
2022/11/26 04:57:12;;;;;;;18.80;8.45;;;4.40;99.90;;;;;;5089517;28;20607;-60
2022/11/26 04:59:39;;;;;;;25.35;9.30;;;4.40;99.90;;;;;;5089422;28;20228;-60
2022/11/26 05:02:07;;;;;;;27.90;12.50;;;4.30;99.90;;;;;;5089415;28;20197;-60
2022/11/26 05:04:33;;;;;;;20.60;10.48;;;4.30;99.90;;;;;;5089214;28;20660;-60
2022/11/26 05:07:00;;;;;;;23.85;9.32;;;4.30;99.90;;;;;;5089510;28;20211;-59
2022/11/26 05:09:27;;;;;;;24.27;11.73;;;4.30;99.90;;;;;;5089668;28;20221;-60
2022/11/26 05:11:54;;;;;;;26.13;11.82;;;4.30;99.90;;;;;;5089713;28;20207;-60
2022/11/26 05:14:20;;;;;;;20.60;11.50;;;4.30;99.90;;;;;;5090218;28;20231;-59
2022/11/26 05:16:47;;;;;;;31.25;13.50;;;4.40;99.90;;;;;;5090079;28;20223;-59
2022/11/26 05:19:15;;;;;;;28.20;14.40;;;4.40;99.90;;;;;;5090053;28;20196;-59
2022/11/26 05:21:42;;;;;;;28.15;11.70;;;4.50;99.90;;;;;;5077938;28;20679;-58
2022/11/26 05:24:09;;;;;;;26.65;13.52;;;4.50;99.90;;;;;;5076385;28;20307;-58
2022/11/26 05:26:37;;;;;;;29.08;13.40;;;4.60;99.90;;;;;;5075848;28;20229;-60
2022/11/26 05:29:04;;;;;;;25.95;13.52;;;4.60;99.90;;;;;;5075943;28;20237;-59
2022/11/26 05:31:30;;;;;;;24.13;13.57;;;4.60;99.90;;;;;;5076518;28;20207;-59
2022/11/26 05:33:57;;;;;;;29.92;12.82;;;4.60;99.90;;;;;;5076537;28;20707;-60
2022/11/26 05:36:25;;;;;;;40.95;14.00;;;4.60;99.90;;;;;;5075999;28;20237;-60
2022/11/26 05:38:52;;;;;;;35.17;13.40;;;4.60;99.90;;;;;;5076193;28;20205;-59
2022/11/26 05:41:19;;;;;;;29.25;13.85;;;4.60;99.90;;;;;;5075866;28;20205;-59
2022/11/26 05:43:46;;;;;;;23.77;12.95;;;4.50;99.90;;;;;;5075841;28;20212;-59
2022/11/26 05:46:16;;;;;;;30.30;11.95;;;4.50;99.90;;;;;;5075752;28;20312;-60
2022/11/26 05:48:43;;;;;;;25.42;12.55;;;4.40;99.90;;;;;;5076679;28;20284;-60
2022/11/26 05:51:10;;;;;;;23.42;11.57;;;4.40;99.90;;;;;;5075417;28;20259;-62
2022/11/26 05:53:38;;;;;;;26.42;12.57;;;4.40;99.90;;;;;;5063323;28;20588;-62
2022/11/26 05:56:05;;;;;;;21.83;11.30;;;4.30;99.90;;;;;;5061517;28;20228;-59
2022/11/26 05:58:32;;;;;;;28.33;12.15;;;4.30;99.90;;;;;;5065903;28;20201;-60
2022/11/26 06:00:59;;;;;;;27.55;11.88;;;4.40;99.90;;;;;;5075666;28;20197;-60
2022/11/26 06:03:26;;;;;;;23.52;11.95;;;4.30;99.90;;;;;;5057929;28;20202;-60
2022/11/26 06:05:53;;;;;;;25.80;12.13;;;4.30;99.90;;;;;;5066897;28;20233;-60
2022/11/26 06:08:20;;;;;;;22.55;12.23;;;4.30;99.90;;;;;;5075433;28;20201;-59
2022/11/26 06:10:48;;;;;;;24.50;12.93;;;4.20;99.90;;;;;;5075385;28;20209;-60
2022/11/26 06:13:14;;;;;;;25.15;12.32;;;4.20;99.90;;;;;;5075273;28;20204;-59
2022/11/26 06:15:41;;;;;;;21.10;12.85;;;4.20;99.90;;;;;;5059219;28;20544;-59
2022/11/26 06:18:08;;;;;;;28.40;12.15;;;4.10;99.90;;;;;;5059913;28;20228;-60
2022/11/26 06:20:36;;;;;;;30.67;13.43;;;4.10;99.90;;;;;;5058530;28;20208;-59
2022/11/26 06:23:02;;;;;;;20.92;10.23;;;4.00;99.90;;;;;;5059003;28;20672;-59
2022/11/26 06:25:30;;;;;;;25.92;13.00;;;4.00;99.90;;;;;;5056290;28;20244;-59
2022/11/26 06:27:59;;;;;;;31.20;12.73;;;3.90;99.90;;;;;;5055512;28;20682;-59
2022/11/26 06:30:25;;;;;;;25.35;12.35;;;3.90;99.90;;;;;;5055862;28;20229;-60
2022/11/26 06:32:52;;;;;;;21.70;11.32;;;3.90;99.90;;;;;;5054718;28;20208;-61
2022/11/26 06:35:19;;;;;;;26.42;13.50;;;4.00;99.90;;;;;;5054590;28;20218;-59
2022/11/26 06:37:46;;;;;;;20.92;11.73;;;4.00;99.90;;;;;;5054791;28;20205;-60
2022/11/26 06:40:17;;;;;;;21.88;12.35;;;4.00;99.90;;;;;;5054836;28;20686;-60
2022/11/26 06:42:55;;;;;;;22.75;12.73;;;4.00;99.90;;;;;;5054802;28;20208;-60
2022/11/26 06:45:24;;;;;;;27.95;12.40;;;4.00;99.90;;;;;;5054520;28;20221;-59
2022/11/26 06:47:51;;;;;;;23.27;11.18;;;3.90;99.90;;;;;;5054629;28;20202;-59
2022/11/26 06:50:20;;;;;;;23.65;11.50;;;3.90;99.90;;;;;;5057803;28;20228;-58
2022/11/26 06:52:50;;;;;;;25.55;12.70;;;3.90;99.90;;;;;;5075377;28;20201;-59
2022/11/26 06:55:17;;;;;;;27.55;12.10;;;3.80;99.90;;;;;;5074289;28;20585;-57
2022/11/26 06:57:44;;;;;;;24.95;12.40;;;3.80;99.90;;;;;;5056769;28;20205;-59
2022/11/26 07:00:12;;;;;;;20.65;11.98;;;3.80;99.90;;;;;;5052642;28;20580;-60
2022/11/26 07:02:41;;;;;;;20.92;10.95;;;3.90;99.90;;;;;;5052350;28;20569;-60
2022/11/26 07:05:08;;;;;;;27.15;14.10;;;3.90;99.90;;;;;;5052579;28;20226;-59
2022/11/26 07:07:37;;;;;;;19.98;11.15;;;4.00;99.90;;;;;;5057692;28;20202;-59
2022/11/26 07:10:04;;;;;;;23.50;11.65;;;4.00;99.90;;;;;;5059512;28;20227;-59
2022/11/26 07:12:31;;;;;;;25.67;12.95;;;4.00;99.90;;;;;;5060607;28;20206;-58
2022/11/26 07:14:57;;;;;;;19.05;10.93;;;4.00;99.90;;;;;;5055830;28;20228;-59
2022/11/26 07:17:24;;;;;;;29.35;12.65;;;3.90;99.90;;;;;;5075438;28;20201;-59
2022/11/26 07:19:52;;;;;;;19.45;11.15;;;3.90;99.90;;;;;;5072590;28;20197;-60
2022/11/26 07:22:19;;;;;;;20.55;11.20;;;3.90;99.90;;;;;;5054617;28;20205;-59
2022/11/26 07:24:46;;;;;;;27.35;11.45;;;3.90;99.90;;;;;;5059321;28;20231;-61
2022/11/26 07:27:13;;;;;;;31.83;13.90;;;4.00;99.90;;;;;;5075009;28;20201;-62
2022/11/26 07:29:39;;;;;;;28.65;12.07;;;4.00;99.90;;;;;;5074675;28;20239;-60
2022/11/26 07:32:06;;;;;;;25.80;11.50;;;4.00;99.90;;;;;;5073194;28;20685;-60
2022/11/26 07:34:33;;;;;;;29.83;11.13;;;4.00;99.90;;;;;;5073080;28;20207;-60
2022/11/26 07:37:01;;;;;;;23.98;11.35;;;4.00;99.90;;;;;;5059116;28;20206;-59
2022/11/26 07:39:28;;;;;;;28.92;12.20;;;4.00;99.90;;;;;;5056472;28;20209;-60
2022/11/26 07:41:55;;;;;;;24.90;12.73;;;4.00;99.90;;;;;;5071860;28;20201;-59
2022/11/26 07:44:22;;;;;;;27.58;12.18;;;4.10;99.90;;;;;;5068034;28;21120;-60
2022/11/26 07:46:48;;;;;;;28.63;13.65;;;4.10;99.90;;;;;;5053427;28;20221;-58
2022/11/26 07:49:15;;;;;;;29.70;12.50;;;4.10;99.90;;;;;;5053740;28;20674;-59
2022/11/26 07:51:42;;;;;;;22.65;11.85;;;4.20;99.90;;;;;;5054567;28;20221;-58
2022/11/26 07:54:10;;;;;;;19.17;12.13;;;4.30;99.90;;;;;;5054456;28;20567;-60
2022/11/26 07:56:37;;;;;;;24.88;12.60;;;4.30;99.90;;;;;;5053675;28;20227;-59
2022/11/26 07:59:04;;;;;;;27.58;13.60;;;4.40;99.90;;;;;;5053607;28;20202;-59
2022/11/26 08:01:32;;;;;;;21.67;12.82;;;4.50;99.90;;;;;;5053141;28;20674;-59
2022/11/26 08:03:59;;;;;;;26.52;14.52;;;4.60;99.90;;;;;;5053372;28;20202;-59
2022/11/26 08:06:28;;;;;;;27.17;12.07;;;4.70;99.90;;;;;;5053661;28;20252;-59
2022/11/26 08:08:55;;;;;;;24.35;13.55;;;4.90;99.90;;;;;;5053583;28;20225;-59
2022/11/26 08:11:24;;;;;;;23.85;13.20;;;5.00;99.90;;;;;;5053276;28;20235;-59
2022/11/26 08:13:53;;;;;;;30.10;14.13;;;5.10;99.90;;;;;;5053078;28;20588;-61
2022/11/26 08:16:20;;;;;;;38.97;15.88;;;5.20;99.90;;;;;;5052878;28;20240;-59
2022/11/26 08:18:47;;;;;;;29.15;14.00;;;5.30;99.90;;;;;;5071553;28;20652;-60
2022/11/26 08:21:14;;;;;;;25.98;13.25;;;5.30;99.90;;;;;;5075153;28;20193;-60
2022/11/26 08:23:41;;;;;;;28.70;14.25;;;5.40;99.90;;;;;;5074220;28;20200;-60
2022/11/26 08:26:09;;;;;;;23.50;12.80;;;5.50;99.90;;;;;;5077438;28;20221;-60
2022/11/26 08:28:37;;;;;;;27.77;13.82;;;5.60;99.90;;;;;;5076714;28;20531;-60
2022/11/26 08:31:05;;;;;;;29.73;13.80;;;5.60;99.90;;;;;;5074382;28;20217;-59
2022/11/26 08:33:33;;;;;;;32.20;15.30;;;5.70;99.90;;;;;;5073671;28;20209;-60
2022/11/26 08:36:00;;;;;;;30.45;14.45;;;5.80;99.90;;;;;;5074357;28;20697;-61
2022/11/26 08:38:29;;;;;;;26.10;14.35;;;5.90;99.90;;;;;;5073929;28;20201;-59
2022/11/26 08:41:01;;;;;;;18.23;13.20;;;6.00;99.90;;;;;;5074243;28;20661;-60
2022/11/26 08:43:28;;;;;;;34.38;14.57;;;6.00;99.90;;;;;;5076331;28;20646;-60
2022/11/26 08:45:58;;;;;;;26.48;14.52;;;6.00;99.90;;;;;;5077371;28;20225;-59
2022/11/26 08:48:27;;;;;;;26.25;12.13;;;6.10;99.90;;;;;;5076764;28;20201;-60
2022/11/26 08:50:57;;;;;;;24.35;12.93;;;6.10;99.90;;;;;;5075381;28;20579;-58
2022/11/26 08:53:24;;;;;;;27.30;15.20;;;6.20;99.90;;;;;;5074593;28;20186;-60
2022/11/26 08:55:51;;;;;;;28.98;14.73;;;6.30;99.90;;;;;;5075930;28;20755;-60
2022/11/26 08:58:18;;;;;;;27.00;15.40;;;6.30;99.90;;;;;;5078505;28;20197;-59
2022/11/26 09:00:44;;;;;;;27.85;14.38;;;6.40;99.90;;;;;;5080952;28;20201;-59
2022/11/26 09:03:12;;;;;;;23.40;13.98;;;6.40;99.90;;;;;;5080238;28;20201;-60
2022/11/26 09:05:39;;;;;;;23.88;13.85;;;6.50;99.90;;;;;;5078028;28;20228;-61
2022/11/26 09:08:06;;;;;;;29.15;14.80;;;6.50;99.90;;;;;;5077972;28;20201;-61
2022/11/26 09:10:33;;;;;;;22.42;13.30;;;6.60;99.90;;;;;;5079393;28;20220;-59
2022/11/26 09:12:59;;;;;;;18.48;12.55;;;6.60;99.90;;;;;;5079385;28;20203;-58
2022/11/26 09:15:26;;;;;;;26.52;13.82;;;6.60;99.90;;;;;;5077187;28;20731;-59
2022/11/26 09:17:53;;;;;;;25.70;14.60;;;6.70;99.90;;;;;;5076718;28;20205;-58
2022/11/26 09:20:21;;;;;;;30.15;13.57;;;6.70;99.90;;;;;;5076765;28;20208;-60
2022/11/26 09:22:48;;;;;;;23.33;12.60;;;6.80;99.90;;;;;;5076325;28;20688;-60
2022/11/26 09:25:15;;;;;;;20.77;11.23;;;6.80;99.90;;;;;;5077481;28;20225;-59
2022/11/26 09:27:41;;;;;;;19.38;11.40;;;6.90;99.90;;;;;;5076633;28;20207;-60
2022/11/26 09:30:09;;;;;;;16.88;11.88;;;6.90;99.90;;;;;;5076158;28;20228;-60
2022/11/26 09:32:36;;;;;;;20.52;12.32;;;7.00;99.90;;;;;;5076023;28;20205;-60
2022/11/26 09:35:03;;;;;;;19.02;11.43;;;7.10;99.90;;;;;;5076060;28;20228;-60
2022/11/26 09:37:32;;;;;;;19.95;10.82;;;7.20;99.90;;;;;;5076273;28;20205;-60
2022/11/26 09:40:00;;;;;;;19.35;12.10;;;7.20;99.90;;;;;;5076859;28;20203;-62
2022/11/26 09:42:43;;;;;;;15.18;10.88;;;7.30;99.90;;;;;;5077927;28;20208;-61
2022/11/26 09:45:19;;;;;;;20.52;12.10;;;7.40;99.90;;;;;;5075919;28;20221;-60
2022/11/26 09:47:52;;;;;;;17.92;11.25;;;7.50;99.90;;;;;;5076459;28;20202;-61
2022/11/26 09:50:26;;;;;;;21.67;12.25;;;7.50;99.90;;;;;;5077407;28;20217;-61
2022/11/26 09:52:59;;;;;;;19.38;10.00;;;7.60;99.90;;;;;;5075640;28;20193;-59
2022/11/26 09:55:29;;;;;;;18.75;11.32;;;7.70;99.90;;;;;;5075382;28;20225;-60
2022/11/26 09:58:02;;;;;;;19.27;10.95;;;7.70;99.90;;;;;;5075388;28;20673;-58
2022/11/26 10:00:32;;;;;;;16.70;9.95;;;7.80;99.90;;;;;;5075527;28;20633;-58
2022/11/26 10:02:59;;;;;;;16.67;10.20;;;7.90;99.90;;;;;;5076388;28;20181;-59
2022/11/26 10:05:39;;;;;;;10.88;8.90;;;7.90;99.90;;;;;;5075425;28;20232;-60
2022/11/26 10:08:24;;;;;;;15.35;9.30;;;8.00;99.90;;;;;;5075223;28;20189;-60
2022/11/26 10:10:55;;;;;;;13.40;8.85;;;8.10;99.90;;;;;;5075662;28;20205;-60
2022/11/26 10:13:30;;;;;;;15.40;9.45;;;8.20;99.90;;;;;;5075497;28;20205;-60
2022/11/26 10:16:04;;;;;;;15.68;9.10;;;8.30;99.90;;;;;;5075363;28;20221;-58
2022/11/26 10:18:39;;;;;;;15.35;8.85;;;8.40;99.90;;;;;;5074989;28;20673;-60
2022/11/26 10:21:17;;;;;;;16.10;10.32;;;8.40;99.90;;;;;;5075330;28;20177;-59
2022/11/26 10:23:49;;;;;;;18.55;9.00;;;8.60;99.90;;;;;;5075114;28;20195;-60
2022/11/26 10:26:19;;;;;;;16.20;9.90;;;8.60;99.90;;;;;;5084225;22;20238;-61
2022/11/26 10:28:47;;;;;;;21.73;10.20;;;8.70;99.90;;;;;;5056311;28;20244;-62
2022/11/26 10:31:21;;;;;;;13.50;8.48;;;8.80;99.90;;;;;;5055889;28;20257;-62
2022/11/26 10:33:55;;;;;;;19.63;10.23;;;8.90;99.90;;;;;;5055946;28;20210;-61
2022/11/26 10:36:32;;;;;;;15.60;9.05;;;9.00;99.90;;;;;;5056349;28;20231;-62
2022/11/26 10:39:01;;;;;;;20.10;9.40;;;9.20;99.90;;;;;;5056629;28;20348;-63
2022/11/26 10:41:34;;;;;;;16.05;7.07;;;9.30;99.90;;;;;;5056211;28;20281;-63
2022/11/26 10:44:28;;;;;;;22.13;9.00;;;9.50;99.90;;;;;;5057537;28;20218;-63
2022/11/26 10:46:55;;;;;;;14.10;7.63;;;9.60;99.90;;;;;;5056757;28;20197;-63
2022/11/26 10:49:25;;;;;;;23.83;8.73;;;9.70;99.90;;;;;;5056655;28;20740;-62
2022/11/26 10:51:56;;;;;;;13.73;7.60;;;9.80;99.90;;;;;;5055468;28;20220;-63
2022/11/26 10:54:27;;;;;;;11.23;6.90;;;9.90;99.90;;;;;;5055029;28;20448;-63
2022/11/26 10:56:56;;;;;;;19.60;7.60;;;9.90;99.90;;;;;;5054738;28;20503;-62
2022/11/26 10:59:26;;;;;;;15.93;7.77;;;9.90;99.90;;;;;;5055120;28;20453;-63
2022/11/26 11:01:55;;;;;;;18.73;7.35;;;9.90;99.90;;;;;;5054961;28;20444;-64
2022/11/26 11:04:27;;;;;;;13.82;6.70;;;9.90;99.90;;;;;;5054749;28;20692;-62
2022/11/26 11:06:54;;;;;;;13.80;6.90;;;9.90;99.90;;;;;;5055002;28;20236;-62
2022/11/26 11:09:30;;;;;;;12.80;7.80;;;9.90;99.90;;;;;;5055463;28;20444;-63
2022/11/26 11:12:24;;;;;;;19.23;8.57;;;9.90;99.90;;;;;;5054569;28;20495;-61
2022/11/26 11:14:52;;;;;;;17.53;7.63;;;9.90;99.90;;;;;;5007930;28;20217;-62
2022/11/26 11:17:33;;;;;;;13.27;7.13;;;10.00;99.90;;;;;;5054682;28;20505;-63
2022/11/26 11:20:20;;;;;;;21.50;9.87;;;10.00;99.90;;;;;;5053720;28;20933;-63
2022/11/26 11:22:48;;;;;;;20.60;7.93;;;10.00;99.90;;;;;;5054353;28;20493;-63
2022/11/26 11:25:24;;;;;;;22.03;9.17;;;10.10;99.90;;;;;;5054617;28;20917;-63
2022/11/26 11:27:53;;;;;;;15.53;8.00;;;10.20;99.90;;;;;;5054521;28;20431;-63
2022/11/26 11:30:25;;;;;;;19.93;9.60;;;10.30;99.90;;;;;;5054706;28;20432;-62
2022/11/26 11:32:56;;;;;;;18.50;8.83;;;10.30;99.90;;;;;;5055267;28;20456;-62
2022/11/26 11:35:24;;;;;;;14.43;9.27;;;10.40;99.90;;;;;;5054458;28;20472;-63
2022/11/26 11:37:53;;;;;;;17.20;8.30;;;10.40;99.90;;;;;;5054983;28;20456;-63
2022/11/26 11:40:26;;;;;;;18.10;8.57;;;10.40;99.90;;;;;;5055011;28;20448;-63
2022/11/26 11:42:56;;;;;;;21.43;10.13;;;10.40;99.90;;;;;;5054699;28;20428;-63
2022/11/26 11:45:28;;;;;;;19.20;9.97;;;10.30;99.90;;;;;;5054321;28;20499;-63
2022/11/26 11:48:00;;;;;;;16.33;9.47;;;10.20;99.90;;;;;;5054022;28;20425;-63
2022/11/26 11:50:32;;;;;;;16.50;8.97;;;10.20;99.90;;;;;;5054004;28;20460;-62
2022/11/26 11:53:18;;;;;;;17.33;9.00;;;10.20;99.90;;;;;;5053488;28;20436;-63
2022/11/26 11:56:00;;;;;;;17.10;8.67;;;10.20;99.90;;;;;;5053532;28;20518;-63
2022/11/26 11:58:55;;;;;;;23.47;9.93;;;10.20;99.90;;;;;;5053409;28;20511;-62
2022/11/26 12:01:36;;;;;;;27.40;9.50;;;10.20;99.90;;;;;;5053937;28;20425;-63
2022/11/26 12:04:25;;;;;;;20.38;10.65;;;10.20;99.90;;;;;;5053645;28;20431;-63
2022/11/26 12:07:10;;;;;;;23.13;10.03;;;10.20;99.90;;;;;;5053808;28;20623;-63
2022/11/26 12:09:44;;;;;;;16.63;9.10;;;10.20;99.90;;;;;;5054423;28;20428;-62
2022/11/26 12:12:21;;;;;;;24.10;10.13;;;10.20;99.90;;;;;;5054084;28;20574;-61
2022/11/26 12:14:52;;;;;;;20.48;9.90;;;10.30;99.90;;;;;;5054851;28;20476;-63
2022/11/26 12:17:27;;;;;;;20.17;10.43;;;10.30;99.90;;;;;;5053927;28;20190;-64
2022/11/26 12:19:59;;;;;;;14.87;9.50;;;10.30;99.90;;;;;;5053928;28;20435;-62
2022/11/26 12:22:31;;;;;;;20.50;10.40;;;10.30;99.90;;;;;;5053955;28;20431;-63
2022/11/26 12:25:04;;;;;;;26.60;10.93;;;10.30;99.90;;;;;;5054318;28;20480;-63
2022/11/26 12:27:37;;;;;;;20.83;10.90;;;10.30;99.90;;;;;;5054200;28;20444;-63
2022/11/26 12:30:07;;;;;;;19.60;10.60;;;10.30;99.90;;;;;;5054083;28;20428;-63
2022/11/26 12:32:39;;;;;;;23.70;11.47;;;10.30;99.90;;;;;;5058155;28;20467;-63
2022/11/26 12:35:14;;;;;;;22.23;10.30;;;10.30;99.90;;;;;;5058052;28;20464;-63
2022/11/26 12:37:42;;;;;;;24.98;11.23;;;10.30;99.90;;;;;;5057657;28;20432;-63
2022/11/26 12:40:24;;;;;;;23.20;10.40;;;10.30;99.90;;;;;;5056902;28;20564;-63
2022/11/26 12:42:57;;;;;;;31.90;11.37;;;10.30;99.90;;;;;;5057122;28;20428;-62
2022/11/26 12:45:40;;;;;;;17.70;10.23;;;10.20;99.90;;;;;;5057412;28;20467;-62
2022/11/26 12:48:15;;;;;;;24.70;10.00;;;10.20;99.90;;;;;;5057151;28;20433;-62
2022/11/26 12:50:46;;;;;;;25.40;10.43;;;10.20;99.90;;;;;;5057103;28;20432;-62
2022/11/26 12:53:20;;;;;;;25.27;11.50;;;10.10;99.90;;;;;;5057185;28;20435;-63